»·PEaware :: N248PT KPSC-KHQM

N248PT :: KPSC-KHQM

FLIGHT INFORMATION

Flight Status: Arrived
Operator: Privately registered:
United States
More flights under this callsign
Pilot: Joe C. (32102)
Aircraft: BEECH AIRCRAFT BONANZA
(BE36)
More flights by this aircraft type
Origin: KPSC Tri-Cities
United States
Destination: KHQM Bowerman
United States
More flights between these airports :: More routes between these airports
Route: +DIRECT
File this flight plan on PilotEdge
Remarks:
Altitude:
(Current/Filed)
4,500ft
Speed:
(Current/Filed)
0kts
Departed: 27-Oct-20 06:23 PM
Arrived: 27-Oct-20 07:46 PM
Distance/Time
Traveled:
203nm/1:23
Distance/Time
To Go:
Arrived

Flight Plot

Page will automatically refresh every two minutes.

Flight plan parsing failed; only flown route is shown


Map Options




Map Legend


Flown Route
Filed Route
Departure Airport
Arrival Airport
Navaid (VOR, NDB)
Fix

Horizontal Profiles

Position Reports

Time Latitude Longitude Heading Altitude Ground
Speed
27-Oct-20 18:21 46.144702 -119.523082 249 4541ft 174kts
27-Oct-20 18:22 46.131254 -119.589900 253 4508ft 173kts
27-Oct-20 18:23 46.113973 -119.654755 241 4472ft 173kts
27-Oct-20 18:24 46.087723 -119.712411 235 4446ft 172kts
27-Oct-20 18:26 46.059678 -119.768408 225 4412ft 172kts
27-Oct-20 18:27 46.025949 -119.816301 224 4469ft 170kts
27-Oct-20 18:28 45.991943 -119.864687 224 4471ft 175kts
27-Oct-20 18:29 45.957068 -119.914502 224 4472ft 177kts
27-Oct-20 18:30 45.922016 -119.964663 225 4471ft 177kts
27-Oct-20 18:31 45.886971 -120.014977 225 4472ft 181kts
27-Oct-20 18:32 45.852701 -120.069209 237 4471ft 184kts
27-Oct-20 18:33 45.825172 -120.131451 237 4472ft 185kts
27-Oct-20 18:34 45.802759 -120.197534 247 4471ft 185kts
27-Oct-20 18:35 45.783865 -120.266325 252 4472ft 185kts
27-Oct-20 18:36 45.769323 -120.335169 252 4868ft 174kts
27-Oct-20 18:37 45.758045 -120.402178 254 5484ft 171kts
27-Oct-20 18:38 45.746427 -120.467513 254 6071ft 167kts
27-Oct-20 18:39 45.727469 -120.527962 225 6477ft 178kts
27-Oct-20 18:39 45.723130 -120.585898 270 6470ft 184kts
27-Oct-20 18:41 45.724442 -120.671762 271 6476ft 184kts
27-Oct-20 18:41 45.725206 -120.732966 270 6490ft 184kts
27-Oct-20 18:43 45.727351 -120.818732 270 6496ft 185kts
27-Oct-20 18:43 45.729194 -120.880023 271 6496ft 184kts
27-Oct-20 18:45 45.731882 -120.965675 271 6496ft 184kts
27-Oct-20 18:45 45.733682 -121.027040 271 6495ft 185kts
27-Oct-20 18:46 45.735751 -121.100555 271 6504ft 186kts
27-Oct-20 18:47 45.737672 -121.174672 270 6497ft 185kts
27-Oct-20 18:48 45.739398 -121.248436 270 6489ft 184kts
27-Oct-20 18:49 45.740905 -121.322184 270 6499ft 185kts
27-Oct-20 18:50 45.742251 -121.395948 270 6498ft 185kts
27-Oct-20 18:51 45.743240 -121.470023 270 6503ft 187kts
27-Oct-20 18:52 45.744127 -121.544518 270 6488ft 186kts
27-Oct-20 18:53 45.745093 -121.618462 271 6502ft 186kts
27-Oct-20 18:54 45.745895 -121.692554 270 6481ft 184kts
27-Oct-20 18:55 45.746367 -121.766971 270 6522ft 187kts
27-Oct-20 18:56 45.746602 -121.841124 270 6522ft 186kts
27-Oct-20 18:57 45.746853 -121.914927 270 6533ft 187kts
27-Oct-20 18:58 45.746987 -121.989195 270 6523ft 187kts
27-Oct-20 18:59 45.747031 -122.063325 269 6528ft 186kts
27-Oct-20 19:00 45.746886 -122.137250 270 6537ft 184kts
27-Oct-20 19:01 45.746560 -122.211062 271 6512ft 189kts
27-Oct-20 19:02 45.746102 -122.285603 271 6503ft 186kts
27-Oct-20 19:03 45.745716 -122.360312 271 6496ft 188kts
27-Oct-20 19:04 45.745347 -122.435244 271 6508ft 189kts
27-Oct-20 19:05 45.744960 -122.510371 271 6500ft 188kts
27-Oct-20 19:06 45.750661 -122.582344 316 6506ft 183kts
27-Oct-20 19:07 45.791028 -122.626901 322 6500ft 183kts
27-Oct-20 19:08 45.832030 -122.671121 323 6502ft 183kts
27-Oct-20 19:09 45.872893 -122.715344 323 6505ft 184kts
27-Oct-20 19:10 45.913713 -122.759638 322 6488ft 184kts
27-Oct-20 19:11 45.954693 -122.804043 323 6474ft 184kts
27-Oct-20 19:12 45.995637 -122.848334 322 6474ft 184kts
27-Oct-20 19:13 46.036483 -122.892640 322 6475ft 184kts
27-Oct-20 19:14 46.077258 -122.937065 323 6481ft 184kts
27-Oct-20 19:15 46.118214 -122.981447 322 6488ft 182kts
27-Oct-20 19:16 46.158482 -123.024890 323 6502ft 180kts
27-Oct-20 19:17 46.198808 -123.068398 322 6500ft 180kts
27-Oct-20 19:18 46.238954 -123.111670 323 6505ft 180kts
27-Oct-20 19:19 46.280041 -123.156616 322 6197ft 187kts
27-Oct-20 19:20 46.322766 -123.196930 342 6015ft 178kts
27-Oct-20 19:21 46.366776 -123.224123 334 6003ft 168kts
27-Oct-20 19:22 46.406864 -123.250277 334 6025ft 142kts
27-Oct-20 19:23 46.443286 -123.274011 335 6018ft 144kts
27-Oct-20 19:24 46.479562 -123.297633 335 6014ft 143kts
27-Oct-20 19:25 46.516612 -123.321626 336 5970ft 153kts
27-Oct-20 19:26 46.556399 -123.347165 335 6002ft 160kts
27-Oct-20 19:27 46.596881 -123.373294 335 6003ft 158kts
27-Oct-20 19:28 46.637602 -123.399723 335 6001ft 162kts
27-Oct-20 19:29 46.678364 -123.426315 334 5989ft 159kts
27-Oct-20 19:30 46.718892 -123.452362 335 6002ft 159kts
27-Oct-20 19:31 46.759557 -123.478710 335 5984ft 161kts
27-Oct-20 19:32 46.799474 -123.504498 334 5363ft 150kts
27-Oct-20 19:33 46.837502 -123.528950 335 4783ft 149kts
27-Oct-20 19:34 46.875753 -123.554118 335 4601ft 151kts
27-Oct-20 19:35 46.914172 -123.579401 335 4607ft 151kts
27-Oct-20 19:36 46.952761 -123.604751 335 4608ft 152kts
27-Oct-20 19:37 46.987569 -123.639891 314 4523ft 154kts
27-Oct-20 19:38 47.000450 -123.696842 249 3707ft 163kts
27-Oct-20 19:39 46.993967 -123.752618 268 2660ft 131kts
27-Oct-20 19:40 46.988321 -123.797930 267 2044ft 99kts
27-Oct-20 19:41 46.983123 -123.833363 269 1452ft 83kts
27-Oct-20 19:42 46.979517 -123.866974 266 1010ft 84kts
27-Oct-20 19:43 46.975645 -123.901128 261 471ft 85kts
27-Oct-20 19:44 46.971580 -123.933456 258 20ft 58kts
27-Oct-20 19:45 46.972030 -123.938502 81 20ft 18kts
27-Oct-20 19:46 46.973286 -123.931003 325 18ft 2kts
27-Oct-20 19:47 46.973344 -123.931036 344 18ft 0kts
27-Oct-20 19:48 46.973344 -123.931036 344 18ft 0kts
27-Oct-20 19:49 46.973344 -123.931036 344 18ft 0kts
27-Oct-20 19:50 46.973344 -123.931036 344 18ft 0kts
27-Oct-20 19:51 46.973344 -123.931036 344 18ft 0kts
27-Oct-20 19:52 46.973344 -123.931036 344 18ft 0kts
27-Oct-20 19:53 46.973344 -123.931036 344 18ft 0kts
27-Oct-20 19:54 46.973344 -123.931036 344 18ft 0kts
27-Oct-20 19:55 46.973344 -123.931036 344 18ft 0kts
27-Oct-20 19:56 46.973344 -123.931036 344 18ft 0kts
27-Oct-20 19:57 46.973344 -123.931036 344 18ft 0kts
27-Oct-20 19:58 46.973344 -123.931036 344 18ft 0kts
27-Oct-20 19:59 46.973344 -123.931036 344 18ft 0kts

Navigation Log

Ident Type
Flight plan parsing failed, navigation log unavailable